The Gibbers, Australia

11:31 AM AEST on May 23, 2017 (GMT +1000)
Port Stephens | | Change Station

Elev 150 ft 32.73 °S, 152.03 °E | Updated 45 seconds ago

Partly Cloudy
Partly Cloudy
66.5 °F
Feels Like 66.5 °F
N
1.0
Wind Variable Wind from West
Gusts 3.0 mph

Today
High -- | Low -- °F
--% Chance of Precip.
Yesterday
High -- | Low -- °F
Precip. -- in
Pressure 30.15 in
Visibility 6.2 miles
Clouds Mostly Cloudy 500 ft
Dew Point 62 °F
Humidity 86%
Rainfall 0.00 in
Snow Depth Not available.
6:40 AM 4:57 PM
Waning Crescent, 11% visible
SPECI YWLM 230100Z 30009KT 9999 BKN005 17/16 Q1021 FM0100 32007KT 3000 BR SCT003 FM0200 32008KT 9999 FEW015
Pressure 30.15 in
Visibility 6.2 miles
Clouds Mostly Cloudy 500 ft
Dew Point 62 °F
Humidity 86%
Rainfall 0.00 in
Snow Depth Not available.
6:40 AM 4:57 PM
Waning Crescent, 11% visible
SPECI YWLM 230100Z 30009KT 9999 BKN005 17/16 Q1021 FM0100 32007KT 3000 BR SCT003 FM0200 32008KT 9999 FEW015

Get Severe Weather Alerts

Thanks for signing up!

Be on the lookout for a verification email in your inbox.

You'll start receiving the daily forecast at 6 AM.

×

10-Day Weather Forecast

×

Almanac

Astronomy

May. 23, 2017 Rise Set
Actual Time
Civil Twilight
Nautical Twilight
Astronomical Twilight
Moon
Length of Visible Light
Length of Day
Tomorrow will be .
, % of the Moon is Illuminated

Today's Extremes

Country Highs Country Lows

Community

WunderPhotos

Category 6

Welcome to Category 6. This is the collective home for Weather Underground's featured writeups by Dr. Jeff Masters (right), Bob Henson (left), Chris Burt, and other regular contributors.

Nearby

Air Quality

  Air Quality AQ Index Pollutant
Not available.

Snow Depth

Station Depth Elevation

Earthquake Activity

City Distance Mag. Time & Date
Minimum magnitude displayed is 2.5.

Coastal Water Temperatures

Place Temperature

Stations

Nearby Weather Stations

Station Location Temp. Windchill Dew Point Humidity Wind Precip. Elev Updated Type